createdAt,value
2023-02-11T00:01:48.979Z,1.08
2023-02-11T00:04:16.444Z,1.02
2023-02-11T00:06:42.972Z,1.22
2023-02-11T00:09:10.822Z,1.06
2023-02-11T00:11:37.385Z,0.98
2023-02-11T00:14:07.726Z,0.93
2023-02-11T00:16:34.537Z,1.00
2023-02-11T00:19:03.110Z,0.86
2023-02-11T00:21:29.773Z,0.86
2023-02-11T00:23:59.643Z,0.81
2023-02-11T00:26:29.157Z,0.73
2023-02-11T00:28:57.082Z,0.53
2023-02-11T00:31:24.340Z,0.66
2023-02-11T00:33:51.193Z,0.75
2023-02-11T00:36:23.882Z,0.76
2023-02-11T00:38:51.787Z,0.78
2023-02-11T00:41:20.494Z,0.58
2023-02-11T00:43:47.697Z,0.64
2023-02-11T00:46:15.130Z,0.72
2023-02-11T00:48:42.086Z,0.73
2023-02-11T00:51:09.006Z,0.80
2023-02-11T00:53:35.892Z,0.71
2023-02-11T00:56:02.418Z,0.43
2023-02-11T00:58:29.202Z,0.32
2023-02-11T01:00:56.306Z,0.49
2023-02-11T01:03:23.038Z,0.58
2023-02-11T01:05:49.886Z,0.67
2023-02-11T01:08:16.598Z,0.52
2023-02-11T01:10:43.989Z,0.48
2023-02-11T01:13:11.040Z,0.36
2023-02-11T01:15:37.871Z,0.43
2023-02-11T01:18:05.839Z,0.35
2023-02-11T01:20:32.672Z,0.30
2023-02-11T01:22:59.230Z,0.24
2023-02-11T01:25:25.716Z,0.34
2023-02-11T01:27:52.222Z,0.20
2023-02-11T01:30:18.697Z,0.09
2023-02-11T01:32:45.145Z,0.05
2023-02-11T01:35:11.686Z,0.09
2023-02-11T01:37:38.488Z,0.14
2023-02-11T01:40:12.086Z,0.27
2023-02-11T01:42:38.614Z,0.37
2023-02-11T01:45:39.005Z,0.31
2023-02-11T01:48:05.698Z,0.30
2023-02-11T01:50:32.443Z,0.26
2023-02-11T01:53:18.983Z,0.19
2023-02-11T01:56:04.343Z,0.32
2023-02-11T01:58:34.801Z,0.20
2023-02-11T02:01:04.578Z,0.21
2023-02-11T02:03:33.361Z,0.22
2023-02-11T02:06:03.862Z,0.19
2023-02-11T02:09:05.573Z,0.10
2023-02-11T02:11:32.199Z,0.13
2023-02-11T02:13:59.195Z,0.12
2023-02-11T02:16:33.063Z,0.01
2023-02-11T02:19:11.669Z,0.04
2023-02-11T02:22:16.048Z,-0.06
2023-02-11T02:24:48.325Z,-0.03
2023-02-11T02:27:20.603Z,0.01
2023-02-11T02:29:49.795Z,-0.06
2023-02-11T02:32:32.344Z,-0.02
2023-02-11T02:35:20.263Z,0.04
2023-02-11T02:38:05.053Z,0.12
2023-02-11T02:40:36.812Z,-0.06
2023-02-11T02:43:04.782Z,-0.13
2023-02-11T02:45:31.311Z,-0.15
2023-02-11T02:47:57.855Z,-0.26
2023-02-11T02:50:30.694Z,0.06
2023-02-11T02:53:27.694Z,-0.03
2023-02-11T02:56:06.585Z,0.05
2023-02-11T02:58:51.303Z,-0.04
2023-02-11T03:01:40.069Z,-0.10
2023-02-11T03:04:21.166Z,-0.15
2023-02-11T03:07:07.024Z,-0.11
2023-02-11T03:09:47.924Z,-0.24
2023-02-11T03:12:15.614Z,-0.08
2023-02-11T03:14:42.247Z,0.03
2023-02-11T03:17:10.375Z,0.00
2023-02-11T03:19:43.637Z,0.01
2023-02-11T03:22:29.426Z,0.17
2023-02-11T03:24:56.825Z,0.02
2023-02-11T03:27:37.695Z,-0.03
2023-02-11T03:30:33.157Z,-0.01
2023-02-11T03:33:23.260Z,-0.16
2023-02-11T03:36:19.673Z,-0.24
2023-02-11T03:38:50.975Z,-0.06
2023-02-11T03:41:21.656Z,-0.13
2023-02-11T03:43:51.693Z,-0.39
2023-02-11T03:46:22.512Z,-0.31
2023-02-11T03:48:56.123Z,-0.39
2023-02-11T03:51:23.509Z,-0.71
2023-02-11T03:53:54.966Z,-0.59
2023-02-11T03:56:25.714Z,-0.54
2023-02-11T03:58:52.521Z,-0.49
2023-02-11T04:01:19.130Z,-0.55
2023-02-11T04:03:45.601Z,-0.44
2023-02-11T04:06:12.180Z,-0.57
2023-02-11T04:08:38.762Z,-0.44
2023-02-11T04:11:05.265Z,-0.71
2023-02-11T04:13:31.843Z,-0.69
2023-02-11T04:15:58.338Z,-0.58
2023-02-11T04:18:24.975Z,-0.54
2023-02-11T04:20:51.594Z,-0.39
2023-02-11T04:23:18.076Z,-0.32
2023-02-11T04:25:44.547Z,-0.53
2023-02-11T04:28:11.107Z,-0.50
2023-02-11T04:30:37.629Z,-0.54
2023-02-11T04:33:04.189Z,-0.50
2023-02-11T04:35:30.716Z,-0.59
2023-02-11T04:37:57.516Z,-0.76
2023-02-11T04:40:24.030Z,-0.79
2023-02-11T04:42:50.624Z,-0.76
2023-02-11T04:45:17.099Z,-0.78
2023-02-11T04:47:43.649Z,-0.76
2023-02-11T04:50:10.255Z,-0.55
2023-02-11T04:52:36.793Z,-0.55
2023-02-11T04:55:04.110Z,-0.63
2023-02-11T04:57:30.654Z,-0.43
2023-02-11T04:59:57.127Z,-0.51
2023-02-11T05:02:23.630Z,-0.42
2023-02-11T05:04:50.130Z,-0.42
2023-02-11T05:07:16.566Z,-0.39
2023-02-11T05:09:43.098Z,-0.49
2023-02-11T05:12:10.155Z,-0.68
2023-02-11T05:14:36.630Z,-0.59
2023-02-11T05:17:03.222Z,-0.60
2023-02-11T05:19:31.295Z,-0.39
2023-02-11T05:22:03.047Z,-0.26
2023-02-11T05:24:33.492Z,-0.26
2023-02-11T05:27:00.522Z,-0.50
2023-02-11T05:29:27.635Z,-0.43
2023-02-11T05:31:54.113Z,-0.72
2023-02-11T05:34:20.678Z,-0.80
2023-02-11T05:36:47.165Z,-0.70
2023-02-11T05:39:13.656Z,-0.40
2023-02-11T05:41:40.184Z,-0.62
2023-02-11T05:44:06.691Z,-0.71
2023-02-11T05:46:33.270Z,-0.85
2023-02-11T05:48:59.745Z,-0.68
2023-02-11T05:51:26.277Z,-0.78
2023-02-11T05:53:53.226Z,-0.77
2023-02-11T05:56:19.772Z,-0.74
2023-02-11T05:58:46.288Z,-0.62
2023-02-11T06:01:12.773Z,-0.77
2023-02-11T06:03:39.384Z,-0.65
2023-02-11T06:06:10.488Z,-0.65
2023-02-11T06:08:39.186Z,-0.78
2023-02-11T06:11:05.917Z,-0.62
2023-02-11T06:13:32.381Z,-0.55
2023-02-11T06:16:00.539Z,-0.57
2023-02-11T06:18:27.230Z,-0.81
2023-02-11T06:20:53.929Z,-0.85
2023-02-11T06:23:20.634Z,-1.02
2023-02-11T06:25:47.158Z,-0.98
2023-02-11T06:28:13.748Z,-1.08
2023-02-11T06:30:40.655Z,-1.03
2023-02-11T06:33:07.228Z,-1.05
2023-02-11T06:35:35.333Z,-1.10
2023-02-11T06:38:01.922Z,-0.97
2023-02-11T06:40:28.435Z,-0.90
2023-02-11T06:42:54.981Z,-0.90
2023-02-11T06:45:21.491Z,-0.96
2023-02-11T06:47:47.958Z,-0.80
2023-02-11T06:50:15.091Z,-0.85
2023-02-11T06:52:41.685Z,-0.80
2023-02-11T06:55:08.594Z,-0.74
2023-02-11T06:57:35.165Z,-0.71
2023-02-11T07:00:01.706Z,-0.53
2023-02-11T07:02:28.253Z,-0.60
2023-02-11T07:04:54.745Z,-0.57
2023-02-11T07:07:21.262Z,-0.57
2023-02-11T07:09:47.816Z,-0.92
2023-02-11T07:12:14.363Z,-0.82
2023-02-11T07:14:40.895Z,-0.55
2023-02-11T07:17:07.379Z,-0.37
2023-02-11T07:19:33.816Z,-0.31
2023-02-11T07:22:00.310Z,-0.38
2023-02-11T07:24:26.920Z,-0.64
2023-02-11T07:26:54.078Z,-0.71
2023-02-11T07:29:20.557Z,-0.52
2023-02-11T07:31:47.171Z,-0.42
2023-02-11T07:34:13.802Z,-0.23
2023-02-11T07:36:40.444Z,-0.21
2023-02-11T07:39:06.979Z,-0.29
2023-02-11T07:41:37.692Z,-0.10
2023-02-11T07:44:04.822Z,-0.10
2023-02-11T07:46:31.396Z,0.38
2023-02-11T07:48:58.295Z,0.81
2023-02-11T07:51:27.865Z,1.12
2023-02-11T07:53:55.801Z,1.59
2023-02-11T07:56:23.334Z,1.77
2023-02-11T07:58:50.470Z,1.76
2023-02-11T08:01:25.303Z,2.17
2023-02-11T08:03:52.191Z,2.61
2023-02-11T08:06:20.427Z,2.97
2023-02-11T08:08:47.407Z,3.50
2023-02-11T08:11:19.320Z,3.92
2023-02-11T08:13:46.481Z,4.47
2023-02-11T08:16:27.314Z,4.69
2023-02-11T08:18:57.398Z,5.06
2023-02-11T08:21:24.658Z,5.25
2023-02-11T08:23:51.951Z,5.65
2023-02-11T08:26:21.592Z,5.06
2023-02-11T08:28:49.498Z,5.50
2023-02-11T08:31:18.966Z,5.86
2023-02-11T08:33:46.040Z,5.99
2023-02-11T08:36:17.084Z,5.28
2023-02-11T08:38:44.163Z,5.65
2023-02-11T08:41:11.436Z,5.45
2023-02-11T08:43:41.697Z,5.46
2023-02-11T08:46:09.240Z,6.61
2023-02-11T08:48:35.980Z,5.92
2023-02-11T08:51:10.111Z,5.59
2023-02-11T08:53:37.286Z,5.87
2023-02-11T08:56:03.950Z,5.89
2023-02-11T08:58:30.525Z,5.72
2023-02-11T09:00:57.024Z,5.58
2023-02-11T09:03:23.636Z,5.78
2023-02-11T09:05:53.131Z,5.02
2023-02-11T09:08:20.738Z,5.33
2023-02-11T09:10:47.424Z,6.29
2023-02-11T09:13:14.508Z,8.02
2023-02-11T09:15:44.588Z,8.54
2023-02-11T09:18:11.086Z,8.44
2023-02-11T09:20:37.554Z,7.20
2023-02-11T09:23:04.493Z,6.54
2023-02-11T09:25:30.974Z,6.25
2023-02-11T09:27:57.501Z,8.00
2023-02-11T09:30:24.051Z,8.32
2023-02-11T09:32:50.580Z,9.73
2023-02-11T09:35:17.049Z,9.77
2023-02-11T09:37:43.535Z,9.91
2023-02-11T09:40:10.675Z,8.66
2023-02-11T09:43:09.170Z,8.52
2023-02-11T09:45:35.879Z,8.72
2023-02-11T09:48:11.155Z,9.81
2023-02-11T09:50:50.434Z,9.92
2023-02-11T09:53:29.632Z,9.67
2023-02-11T09:55:59.997Z,9.76
2023-02-11T09:58:29.742Z,10.72
2023-02-11T10:01:14.609Z,10.86
2023-02-11T10:03:56.273Z,10.00
2023-02-11T10:06:31.650Z,10.48
2023-02-11T10:09:42.716Z,10.83
2023-02-11T10:12:32.398Z,9.66
2023-02-11T10:14:58.830Z,10.42
2023-02-11T10:17:47.028Z,10.25
2023-02-11T10:20:29.526Z,9.83
2023-02-11T10:23:01.028Z,9.90
2023-02-11T10:25:34.852Z,10.70
2023-02-11T10:28:10.125Z,11.32
2023-02-11T10:30:53.094Z,11.47
2023-02-11T10:33:32.588Z,11.82
2023-02-11T10:35:59.550Z,11.33
2023-02-11T10:38:27.822Z,11.36
2023-02-11T10:40:54.384Z,12.10
2023-02-11T10:43:25.801Z,12.49
2023-02-11T10:45:54.015Z,12.56
2023-02-11T10:48:51.519Z,13.04
2023-02-11T10:51:21.022Z,13.09
2023-02-11T10:54:14.393Z,13.51
2023-02-11T10:56:45.826Z,12.67
2023-02-11T10:59:21.133Z,13.49
2023-02-11T11:02:00.693Z,13.79
2023-02-11T11:04:30.450Z,14.00
2023-02-11T11:07:09.445Z,14.11
2023-02-11T11:09:59.660Z,14.02
2023-02-11T11:12:48.431Z,14.34
2023-02-11T11:15:23.812Z,14.50
2023-02-11T11:18:20.993Z,14.69
2023-02-11T11:21:01.193Z,14.58
2023-02-11T11:23:29.935Z,14.89
2023-02-11T11:26:40.242Z,15.32
2023-02-11T11:29:16.235Z,15.32
2023-02-11T11:32:05.819Z,15.59
2023-02-11T11:34:41.840Z,14.66
2023-02-11T11:37:22.926Z,14.74
2023-02-11T11:40:07.766Z,15.01
2023-02-11T11:42:39.204Z,15.36
2023-02-11T11:45:20.815Z,15.35
2023-02-11T11:48:02.340Z,15.17
2023-02-11T11:50:38.088Z,15.65
2023-02-11T11:53:12.326Z,16.01
2023-02-11T11:55:45.229Z,16.34
2023-02-11T11:58:17.248Z,15.73
2023-02-11T12:00:52.218Z,16.15
2023-02-11T12:03:37.348Z,15.59
2023-02-11T12:06:21.102Z,16.02
2023-02-11T12:09:25.341Z,16.46
2023-02-11T12:12:16.020Z,16.49
2023-02-11T12:15:19.983Z,15.83
2023-02-11T12:18:04.637Z,15.72
2023-02-11T12:20:43.473Z,15.78
2023-02-11T12:23:44.225Z,16.14
2023-02-11T12:26:21.676Z,16.54
2023-02-11T12:29:12.916Z,16.35
2023-02-11T12:32:00.653Z,15.22
2023-02-11T12:34:35.920Z,15.64
2023-02-11T12:37:47.537Z,16.07
2023-02-11T12:40:38.212Z,16.26
2023-02-11T12:43:18.397Z,16.08
2023-02-11T12:46:26.135Z,15.56
2023-02-11T12:49:11.728Z,16.36
2023-02-11T12:51:56.841Z,16.75
2023-02-11T12:54:56.324Z,16.85
2023-02-11T12:57:27.054Z,16.46
2023-02-11T13:00:13.907Z,17.04
2023-02-11T13:02:55.698Z,16.71
2023-02-11T13:05:40.614Z,16.22
2023-02-11T13:08:19.515Z,17.15
2023-02-11T13:10:54.970Z,16.32
2023-02-11T13:13:26.611Z,16.43
2023-02-11T13:16:10.494Z,16.12
2023-02-11T13:18:49.630Z,16.04
2023-02-11T13:21:16.545Z,16.32
2023-02-11T13:23:49.174Z,16.29
2023-02-11T13:26:24.786Z,15.37
2023-02-11T13:29:00.093Z,15.03
2023-02-11T13:31:28.581Z,14.98
2023-02-11T13:33:55.623Z,14.20
2023-02-11T13:36:24.756Z,14.84
2023-02-11T13:39:03.833Z,14.91
2023-02-11T13:41:38.456Z,14.84
2023-02-11T13:44:10.689Z,15.04
2023-02-11T13:46:55.610Z,15.01
2023-02-11T13:49:47.792Z,15.13
2023-02-11T13:52:27.820Z,14.91
2023-02-11T13:54:57.677Z,14.45
2023-02-11T13:57:32.331Z,14.03
2023-02-11T14:00:34.020Z,14.22
2023-02-11T14:03:31.170Z,13.81
2023-02-11T14:06:44.645Z,13.63
2023-02-11T14:09:13.909Z,13.37
2023-02-11T14:11:40.813Z,13.20
2023-02-11T14:14:27.242Z,13.05
2023-02-11T14:16:59.761Z,13.23
2023-02-11T14:19:40.877Z,12.98
2023-02-11T14:22:10.427Z,12.98
2023-02-11T14:24:36.884Z,12.86
2023-02-11T14:27:09.929Z,12.64
2023-02-11T14:29:58.430Z,12.61
2023-02-11T14:32:43.484Z,12.38
2023-02-11T14:35:43.849Z,11.91
2023-02-11T14:38:29.518Z,11.94
2023-02-11T14:41:06.571Z,11.70
2023-02-11T14:43:40.926Z,11.70
2023-02-11T14:46:09.108Z,11.52
2023-02-11T14:48:39.189Z,11.39
2023-02-11T14:51:21.035Z,11.17
2023-02-11T14:53:50.984Z,11.22
2023-02-11T14:56:26.673Z,11.11
2023-02-11T14:58:54.889Z,11.26
2023-02-11T15:01:35.130Z,10.94
2023-02-11T15:04:04.352Z,10.61
2023-02-11T15:06:33.210Z,10.58
2023-02-11T15:09:04.986Z,10.41
2023-02-11T15:11:39.764Z,10.27
2023-02-11T15:14:22.847Z,10.19
2023-02-11T15:16:53.381Z,10.15
2023-02-11T15:19:38.376Z,10.17
2023-02-11T15:22:08.109Z,10.24
2023-02-11T15:24:35.631Z,10.22
2023-02-11T15:27:16.154Z,10.24
2023-02-11T15:29:51.127Z,10.02
2023-02-11T15:32:25.950Z,9.76
2023-02-11T15:34:54.224Z,9.61
2023-02-11T15:37:26.772Z,9.55
2023-02-11T15:39:54.669Z,9.63
2023-02-11T15:42:35.823Z,9.51
2023-02-11T15:45:09.245Z,9.51
2023-02-11T15:47:36.343Z,9.48
2023-02-11T15:50:03.034Z,9.39
2023-02-11T15:52:30.344Z,9.63
2023-02-11T15:55:01.626Z,9.76
2023-02-11T15:57:28.755Z,9.55
2023-02-11T15:59:56.315Z,9.35
2023-02-11T16:02:34.213Z,9.21
2023-02-11T16:05:05.241Z,9.04
2023-02-11T16:07:52.202Z,9.04
2023-02-11T16:10:29.289Z,8.97
2023-02-11T16:13:19.950Z,9.01
2023-02-11T16:15:49.261Z,8.93
2023-02-11T16:18:28.459Z,8.91
2023-02-11T16:21:02.185Z,8.82
2023-02-11T16:23:42.193Z,8.81
2023-02-11T16:26:29.429Z,8.66
2023-02-11T16:29:27.228Z,8.64
2023-02-11T16:32:08.905Z,8.49
2023-02-11T16:34:36.382Z,8.54
2023-02-11T16:37:05.406Z,8.38
2023-02-11T16:39:31.926Z,8.28
2023-02-11T16:41:58.770Z,8.29
2023-02-11T16:44:25.446Z,8.26
2023-02-11T16:46:53.340Z,8.10
2023-02-11T16:49:26.175Z,7.90
2023-02-11T16:51:56.928Z,7.75
2023-02-11T16:54:24.156Z,7.55
2023-02-11T16:56:50.697Z,7.47
2023-02-11T16:59:17.303Z,7.52
2023-02-11T17:01:44.890Z,7.67
2023-02-11T17:04:25.255Z,8.11
2023-02-11T17:06:51.777Z,8.18
2023-02-11T17:09:20.960Z,7.84
2023-02-11T17:11:47.856Z,7.39
2023-02-11T17:14:14.428Z,7.15
2023-02-11T17:16:41.222Z,6.88
2023-02-11T17:19:07.834Z,6.78
2023-02-11T17:21:34.379Z,6.88
2023-02-11T17:24:00.877Z,6.69
2023-02-11T17:26:27.342Z,6.49
2023-02-11T17:28:53.798Z,6.40
2023-02-11T17:31:20.335Z,6.53
2023-02-11T17:33:48.305Z,6.70
2023-02-11T17:36:14.840Z,6.56
2023-02-11T17:38:41.327Z,6.53
2023-02-11T17:41:07.886Z,6.38
2023-02-11T17:43:34.481Z,6.35
2023-02-11T17:46:01.054Z,6.24
2023-02-11T17:48:27.575Z,6.09
2023-02-11T17:50:54.116Z,6.01
2023-02-11T17:53:20.675Z,5.96
2023-02-11T17:55:47.214Z,5.96
2023-02-11T17:58:13.667Z,5.84
2023-02-11T18:00:40.274Z,5.78
2023-02-11T18:03:06.872Z,5.93
2023-02-11T18:05:35.162Z,6.14
2023-02-11T18:08:02.917Z,6.18
2023-02-11T18:10:29.617Z,6.14
2023-02-11T18:12:56.226Z,6.00
2023-02-11T18:15:23.346Z,6.05
2023-02-11T18:17:49.810Z,5.90
2023-02-11T18:20:16.497Z,5.96
2023-02-11T18:22:44.226Z,5.73
2023-02-11T18:25:14.020Z,5.60
2023-02-11T18:27:40.661Z,5.42
2023-02-11T18:30:08.466Z,5.25
2023-02-11T18:32:34.922Z,5.16
2023-02-11T18:35:01.396Z,5.07
2023-02-11T18:37:27.941Z,5.00
2023-02-11T18:39:54.464Z,5.01
2023-02-11T18:42:20.985Z,4.88
2023-02-11T18:44:47.484Z,4.84
2023-02-11T18:47:14.022Z,4.74
2023-02-11T18:49:40.489Z,4.89
2023-02-11T18:52:06.988Z,4.88
2023-02-11T18:54:33.457Z,4.76
2023-02-11T18:56:59.989Z,4.72
2023-02-11T18:59:26.649Z,4.64
2023-02-11T19:01:53.254Z,4.79
2023-02-11T19:04:20.118Z,4.58
2023-02-11T19:06:49.447Z,4.55
2023-02-11T19:09:19.280Z,4.33
2023-02-11T19:11:54.015Z,4.40
2023-02-11T19:14:31.651Z,4.38
2023-02-11T19:17:00.275Z,4.45
2023-02-11T19:19:29.723Z,4.54
2023-02-11T19:21:57.258Z,4.55
2023-02-11T19:24:24.692Z,4.53
2023-02-11T19:26:53.467Z,4.38
2023-02-11T19:29:20.021Z,4.43
2023-02-11T19:31:46.900Z,4.37
2023-02-11T19:34:15.347Z,4.36
2023-02-11T19:36:42.097Z,4.27
2023-02-11T19:39:10.046Z,4.22
2023-02-11T19:41:36.715Z,4.36
2023-02-11T19:44:04.890Z,4.25
2023-02-11T19:46:34.608Z,4.21
2023-02-11T19:49:01.964Z,4.30
2023-02-11T19:51:29.545Z,4.32
2023-02-11T19:53:58.005Z,4.20
2023-02-11T19:56:30.621Z,4.13
2023-02-11T19:58:57.366Z,4.20
2023-02-11T20:01:25.422Z,4.23
2023-02-11T20:03:54.019Z,4.19
2023-02-11T20:06:26.204Z,4.29
2023-02-11T20:08:58.595Z,4.64
2023-02-11T20:11:27.949Z,4.55
2023-02-11T20:13:55.078Z,4.24
2023-02-11T20:16:36.811Z,3.96
2023-02-11T20:19:14.896Z,3.70
2023-02-11T20:21:41.436Z,3.49
2023-02-11T20:24:07.956Z,3.46
2023-02-11T20:26:34.923Z,3.51
2023-02-11T20:29:04.981Z,3.45
2023-02-11T20:31:32.333Z,3.77
2023-02-11T20:34:00.060Z,3.86
2023-02-11T20:36:32.613Z,3.52
2023-02-11T20:39:00.220Z,3.58
2023-02-11T20:41:30.822Z,3.79
2023-02-11T20:43:59.533Z,4.02
2023-02-11T20:46:28.430Z,3.83
2023-02-11T20:48:56.382Z,3.84
2023-02-11T20:51:28.542Z,3.84
2023-02-11T20:53:55.375Z,3.84
2023-02-11T20:56:24.459Z,3.71
2023-02-11T20:58:51.898Z,3.61
2023-02-11T21:01:24.366Z,3.59
2023-02-11T21:04:15.511Z,3.54
2023-02-11T21:06:44.551Z,3.29
2023-02-11T21:09:13.977Z,3.25
2023-02-11T21:11:40.854Z,3.23
2023-02-11T21:14:07.697Z,3.08
2023-02-11T21:16:34.260Z,2.68
2023-02-11T21:19:01.197Z,2.57
2023-02-11T21:21:27.937Z,2.50
2023-02-11T21:23:56.040Z,2.41
2023-02-11T21:26:22.959Z,2.45
2023-02-11T21:28:50.045Z,2.50
2023-02-11T21:31:21.540Z,2.69
2023-02-11T21:33:49.593Z,2.55
2023-02-11T21:36:16.062Z,2.42
2023-02-11T21:38:43.021Z,2.34
2023-02-11T21:41:09.654Z,2.27
2023-02-11T21:43:36.165Z,2.25
2023-02-11T21:46:08.680Z,2.03
2023-02-11T21:48:35.238Z,1.96
2023-02-11T21:51:06.390Z,2.15
2023-02-11T21:53:33.037Z,2.31
2023-02-11T21:56:15.502Z,2.55
2023-02-11T21:58:42.452Z,2.55
2023-02-11T22:01:17.625Z,2.30
2023-02-11T22:03:45.306Z,2.19
2023-02-11T22:06:15.443Z,2.02
2023-02-11T22:08:42.161Z,1.80
2023-02-11T22:11:12.211Z,1.76
2023-02-11T22:13:39.428Z,1.98
2023-02-11T22:16:09.563Z,1.94
2023-02-11T22:18:36.616Z,1.89
2023-02-11T22:21:23.455Z,1.85
2023-02-11T22:23:51.116Z,1.88
2023-02-11T22:26:20.382Z,1.83
2023-02-11T22:28:47.263Z,1.80
2023-02-11T22:31:24.026Z,1.66
2023-02-11T22:33:50.845Z,1.66
2023-02-11T22:36:20.823Z,1.57
2023-02-11T22:38:48.059Z,1.61
2023-02-11T22:41:15.051Z,1.56
2023-02-11T22:43:43.219Z,1.45
2023-02-11T22:46:12.292Z,1.46
2023-02-11T22:48:38.786Z,1.35
2023-02-11T22:51:07.734Z,1.31
2023-02-11T22:53:34.765Z,1.48
2023-02-11T22:56:07.171Z,1.48
2023-02-11T22:58:34.930Z,1.49
2023-02-11T23:01:01.828Z,1.37
2023-02-11T23:03:29.277Z,1.35
2023-02-11T23:05:58.399Z,1.31
2023-02-11T23:08:25.874Z,1.37
2023-02-11T23:10:52.684Z,1.31
2023-02-11T23:13:19.173Z,1.37
2023-02-11T23:15:47.648Z,1.17
2023-02-11T23:18:14.360Z,1.26
2023-02-11T23:20:43.109Z,1.39
2023-02-11T23:23:09.665Z,1.30
2023-02-11T23:25:42.755Z,1.06
2023-02-11T23:28:09.790Z,0.82
2023-02-11T23:30:36.344Z,0.94
2023-02-11T23:33:02.859Z,0.98
2023-02-11T23:35:29.427Z,0.99
2023-02-11T23:37:55.879Z,1.02
2023-02-11T23:40:22.471Z,1.04
2023-02-11T23:42:49.042Z,0.95
2023-02-11T23:45:15.695Z,1.07
2023-02-11T23:47:42.228Z,1.29
2023-02-11T23:50:09.755Z,1.16
2023-02-11T23:52:36.596Z,1.21
2023-02-11T23:55:03.071Z,1.10
2023-02-11T23:57:32.564Z,1.06
2023-02-11T23:59:59.117Z,1.02
